Bei Facebook empfehlenBei Twitter postenGoogle plusPinterest

Das Wetter im Erzgebirge am 15.01.2015

Wetter und Klima am 15.01.2015 Holzhau im Erzgebirge (630m ü.NN)
Letzte gemessene Temperatur und Uhrzeit der Messung23:45:00 Uhr3.70 °C
Temperatur (Maximum / Höchstwert) und Uhrzeit der Messung22:45:00 Uhr4.30 °C
Temperatur (Minimum / Tiefstwert) und Uhrzeit der Messung03:30:00-4.60 °C
Errechneter Absolutwert der Temperaturschwankungen zwischen Tmin und Tmax des Tages8.90 K
Errechnete Tagesmitteltemperatur0.07083 °C
Gesamt - Niederschlag des Tages (in flüssiger Form)1.55 Liter / m²
Luftdruck (Maximum / Höchstwert) und Zeitpunkt der Messung02:30:00 Uhr1013.60 hPa
Luftdruck (Minimum / Tiefstwert) und Zeitpunkt der Messung22:30:00 Uhr1004.80 hPa
Errechneter Absolutwert der Luftdruckschwankungen des Tages8.80 hPa
Höchste gemessene Windgeschwindigkeit und Uhrzeit der Messung22:30:00 Uhr9.36 km/h
Errechnete Windhäufigkeit in Relation zu den Messwerten des Tages6.25000 %
Niedrigste Windkühle (Windchill) und Zeitpunkt der Messung03:30:00 Uhr-4.60 °C
Taupunkt (Maximum / Höchstwert) und Uhrzeit der Messung21:15:00 Uhr0.50 °C
Taupunkt (Minimum / Tiefstwert) und Uhrzeit der Messung03:30:00-6.30 °C
Anzahl der automatisch eingelesenen Messwerte 96

Detaillierte Wetter- und Klima- Messwerte für den 15.01.2015 in Holzhau im Erzgebirge (630m ü.NN)
ZeitTemperaturLuftdruckRel. LuftfeuchteWindWindrichtungWindchillTaupunktNiederschlag l/m²
23:45:003.70 °C1005.20 hPa75.00 %-0.30 °C1.55
23:30:003.60 °C1005.20 hPa75.00 %-0.40 °C1.55
23:15:003.60 °C1005.20 hPa75.00 %-0.40 °C1.55
23:00:003.90 °C1005.10 hPa74.00 %-0.30 °C1.55
22:45:004.30 °C1005.00 hPa74.00 %0.10 °C1.55
22:30:004.10 °C1004.80 hPa76.00 %9.36 km/hOSO1.70 °C0.30 °C1.55
22:15:003.80 °C1005.10 hPa77.00 %0.10 °C1.55
22:00:003.60 °C1005.10 hPa79.00 %0.30 °C1.55
21:45:003.40 °C1005.30 hPa80.00 %0.30 °C1.55
21:30:003.10 °C1005.30 hPa82.00 %0.30 °C1.55
21:15:002.90 °C1005.00 hPa84.00 %0.50 °C1.55
21:00:002.50 °C1005.20 hPa84.00 %0.10 °C1.55
20:45:002.30 °C1005.50 hPa84.00 %-0.10 °C1.55
20:30:002.10 °C1005.40 hPa84.00 %-0.30 °C1.55
20:15:002.30 °C1005.20 hPa83.00 %-0.30 °C1.55
20:00:002.80 °C1005.50 hPa84.00 %0.40 °C1.55
19:45:002.70 °C1005.50 hPa85.00 %0.40 °C1.55
19:30:002.30 °C1005.70 hPa86.00 %0.20 °C1.55
19:15:002.20 °C1005.80 hPa85.00 %-0.10 °C1.55
19:00:002.30 °C1005.40 hPa85.00 %0.00 °C1.55
18:45:002.30 °C1005.60 hPa86.00 %0.20 °C1.55
18:30:002.00 °C1005.80 hPa87.00 %0.10 °C1.55
18:15:001.70 °C1005.80 hPa86.00 %-0.40 °C1.55
18:00:001.90 °C1005.70 hPa86.00 %-0.20 °C1.55
17:45:002.00 °C1006.10 hPa86.00 %-0.10 °C1.55
17:30:002.00 °C1006.00 hPa86.00 %-0.10 °C1.55
17:15:001.90 °C1006.30 hPa86.00 %-0.20 °C1.55
17:00:001.90 °C1006.60 hPa86.00 %-0.20 °C1.55
16:45:002.10 °C1006.50 hPa85.00 %-0.20 °C1.03
16:30:002.40 °C1006.40 hPa85.00 %0.10 °C1.03
16:15:002.40 °C1006.50 hPa86.00 %0.30 °C1.03
16:00:002.30 °C1006.20 hPa86.00 %1.80 km/hSW2.30 °C0.20 °C1.03
15:45:002.10 °C1006.40 hPa86.00 %0.00 °C1.03
15:30:002.10 °C1006.60 hPa86.00 %0.00 °C1.03
15:15:002.10 °C1006.70 hPa85.00 %-0.20 °C1.03
15:00:002.20 °C1006.80 hPa85.00 %-0.10 °C1.03
14:45:002.00 °C1006.90 hPa85.00 %-0.20 °C0.51
14:30:001.90 °C1006.90 hPa85.00 %-0.30 °C0.51
14:15:001.80 °C1006.90 hPa85.00 %6.84 km/hSW-0.30 °C-0.40 °C0.51
14:00:001.80 °C1007.10 hPa85.00 %-0.40 °C 
13:45:001.80 °C1007.50 hPa85.00 %-0.40 °C 
13:30:001.50 °C1007.60 hPa85.00 %-0.70 °C 
13:15:001.60 °C1007.90 hPa85.00 %-0.60 °C 
13:00:001.80 °C1007.90 hPa86.00 %3.96 km/hSW1.80 °C-0.30 °C 
12:45:001.60 °C1008.30 hPa85.00 %-0.60 °C 
12:30:001.30 °C1008.40 hPa86.00 %4.68 km/hOSO1.30 °C-0.80 °C 
12:15:001.30 °C1008.80 hPa86.00 %8.64 km/hOSO-1.40 °C-0.80 °C 
12:00:001.00 °C1009.00 hPa87.00 %-0.90 °C 
11:45:000.90 °C1009.20 hPa87.00 %-1.00 °C 
11:30:000.80 °C1009.40 hPa88.00 %-1.00 °C 
11:15:000.60 °C1009.60 hPa88.00 %-1.20 °C 
11:00:000.40 °C1009.80 hPa88.00 %-1.30 °C 
10:45:000.40 °C1010.00 hPa89.00 %-1.20 °C 
10:30:000.10 °C1010.00 hPa89.00 %-1.50 °C 
10:15:00-0.10 °C1010.00 hPa90.00 %-1.70 °C 
10:00:00-0.10 °C1010.40 hPa90.00 %-1.70 °C 
09:45:00-0.20 °C1010.50 hPa90.00 %-1.80 °C 
09:30:00-0.40 °C1010.30 hPa90.00 %-2.00 °C 
09:15:00-0.70 °C1010.40 hPa91.00 %-2.10 °C 
09:00:00-1.10 °C1010.40 hPa91.00 %-2.50 °C 
08:45:00-1.40 °C1010.50 hPa91.00 %-2.80 °C 
08:30:00-1.60 °C1010.50 hPa91.00 %-3.00 °C 
08:15:00-1.70 °C1010.50 hPa91.00 %-3.10 °C 
08:00:00-1.80 °C1010.70 hPa91.00 %-3.20 °C 
07:45:00-2.10 °C1010.60 hPa91.00 %-3.50 °C 
07:30:00-2.20 °C1010.50 hPa91.00 %-3.60 °C 
07:15:00-2.20 °C1010.70 hPa91.00 %-3.60 °C 
07:00:00-2.70 °C1011.10 hPa91.00 %-4.10 °C 
06:45:00-3.30 °C1010.90 hPa91.00 %-4.70 °C 
06:30:00-3.40 °C1010.90 hPa91.00 %-4.80 °C 
06:15:00-3.90 °C1010.80 hPa90.00 %-5.50 °C 
06:00:00-4.10 °C1011.00 hPa90.00 %-5.70 °C 
05:45:00-4.20 °C1011.30 hPa90.00 %-5.80 °C 
05:30:00-4.20 °C1011.40 hPa90.00 %-5.80 °C 
05:15:00-4.10 °C1012.00 hPa90.00 %-5.70 °C 
05:00:00-3.90 °C1012.20 hPa90.00 %-5.50 °C 
04:45:00-3.70 °C1012.30 hPa90.00 %-5.30 °C 
04:30:00-3.80 °C1012.60 hPa89.00 %-5.50 °C 
04:15:00-4.10 °C1012.70 hPa89.00 %-5.80 °C 
04:00:00-4.20 °C1012.60 hPa89.00 %-5.90 °C 
03:45:00-4.50 °C1012.80 hPa89.00 %-6.20 °C 
03:30:00-4.60 °C1013.00 hPa89.00 %-6.30 °C 
03:15:00-4.40 °C1013.30 hPa89.00 %-6.10 °C 
03:00:00-4.10 °C1013.10 hPa89.00 %-5.80 °C 
02:45:00-3.60 °C1013.40 hPa90.00 %-5.20 °C 
02:30:00-3.30 °C1013.60 hPa90.00 %-4.90 °C 
02:15:00-3.30 °C1013.60 hPa89.00 %-5.00 °C 
02:00:00-3.20 °C1013.40 hPa89.00 %-4.90 °C 
01:45:00-2.80 °C1013.50 hPa88.00 %-4.70 °C 
01:30:00-2.20 °C1013.40 hPa89.00 %-4.00 °C 
01:15:00-1.80 °C1013.30 hPa89.00 %-3.60 °C 
01:00:00-1.90 °C1013.30 hPa89.00 %-3.70 °C 
00:45:00-2.10 °C1013.40 hPa89.00 %-3.90 °C 
00:30:00-1.70 °C1013.00 hPa89.00 %-3.50 °C 
00:15:00-1.20 °C1013.00 hPa89.00 %-3.00 °C 
00:00:00-0.80 °C1012.90 hPa89.00 %-2.60 °C 

Permanenter Link zu dieser Seite: Wetter im Erzgebirge am 15.01.2015
Performance-Info: Die Erstellung der Seite / Statistik(en) / Tabelle(n) erforderte 5 Datenbankserver-Abfrage(n) und dauerte 97 Millisekunden. (Dieser Messwert ist von der Gesamt-Auslastung des Servers abhängig.)
Erzgebirge - Wetter | Erzgebirge - Wetter (Mobilgeräte) | Komplette Klimadatenbank